createdAt,value
2017-06-10T00:00:15.791Z,53.78
2017-06-10T00:00:48.071Z,53.88
2017-06-10T00:01:20.372Z,53.88
2017-06-10T00:01:52.658Z,53.88
2017-06-10T00:02:24.944Z,53.88
2017-06-10T00:02:57.233Z,53.4
2017-06-10T00:03:29.516Z,53.5
2017-06-10T00:04:01.815Z,53.88
2017-06-10T00:04:34.126Z,53.88
2017-06-10T00:05:06.417Z,53.76
2017-06-10T00:05:38.722Z,53.98
2017-06-10T00:06:11.006Z,53.86
2017-06-10T00:06:43.323Z,53.86
2017-06-10T00:07:15.613Z,53.86
2017-06-10T00:07:47.896Z,53.76
2017-06-10T00:08:20.173Z,53.57
2017-06-10T00:08:52.452Z,53.88
2017-06-10T00:09:24.740Z,53.86
2017-06-10T00:09:57.020Z,53.57
2017-06-10T00:10:29.305Z,53.57
2017-06-10T00:11:01.612Z,53.66
2017-06-10T00:11:33.892Z,53.66
2017-06-10T00:12:06.181Z,53.96
2017-06-10T00:12:38.480Z,53.66
2017-06-10T00:13:10.737Z,53.76
2017-06-10T00:13:44.398Z,53.76
2017-06-10T00:14:16.636Z,53.86
2017-06-10T00:14:48.948Z,53.66
2017-06-10T00:15:21.196Z,53.66
2017-06-10T00:15:53.434Z,53.66
2017-06-10T00:16:26.395Z,53.66
2017-06-10T00:16:58.632Z,53.66
2017-06-10T00:17:30.880Z,53.66
2017-06-10T00:18:03.129Z,53.66
2017-06-10T00:18:35.378Z,53.57
2017-06-10T00:19:07.646Z,53.57
2017-06-10T00:19:39.890Z,53.47
2017-06-10T00:20:13.482Z,53.76
2017-06-10T00:20:45.732Z,53.66
2017-06-10T00:21:17.990Z,53.66
2017-06-10T00:21:50.254Z,53.66
2017-06-10T00:22:22.513Z,54.05
2017-06-10T00:22:54.758Z,53.76
2017-06-10T00:23:27.060Z,53.66
2017-06-10T00:23:59.353Z,53.76
2017-06-10T00:24:31.630Z,53.76
2017-06-10T00:25:03.925Z,53.96
2017-06-10T00:25:36.210Z,54.05
2017-06-10T00:26:08.496Z,53.76
2017-06-10T00:26:40.785Z,53.76
2017-06-10T00:27:13.081Z,54.14
2017-06-10T00:27:45.370Z,53.57
2017-06-10T00:28:17.664Z,53.76
2017-06-10T00:28:49.947Z,53.76
2017-06-10T00:29:22.222Z,53.76
2017-06-10T00:29:54.509Z,53.57
2017-06-10T00:30:26.790Z,53.38
2017-06-10T00:30:59.086Z,53.86
2017-06-10T00:31:31.361Z,53.66
2017-06-10T00:32:03.649Z,53.76
2017-06-10T00:32:35.934Z,53.86
2017-06-10T00:33:08.228Z,53.66
2017-06-10T00:33:40.516Z,53.66
2017-06-10T00:34:12.789Z,54.05
2017-06-10T00:34:45.075Z,54.14
2017-06-10T00:35:17.350Z,53.66
2017-06-10T00:35:49.642Z,53.96
2017-06-10T00:36:21.935Z,53.76
2017-06-10T00:36:54.233Z,53.96
2017-06-10T00:37:26.514Z,53.76
2017-06-10T00:37:58.808Z,53.76
2017-06-10T00:38:31.103Z,53.76
2017-06-10T00:39:03.382Z,53.76
2017-06-10T00:39:35.674Z,53.76
2017-06-10T00:40:07.966Z,53.96
2017-06-10T00:40:40.247Z,53.76
2017-06-10T00:41:12.540Z,53.76
2017-06-10T00:41:44.831Z,53.86
2017-06-10T00:42:17.124Z,54.14
2017-06-10T00:42:49.411Z,53.76
2017-06-10T00:43:21.666Z,53.86
2017-06-10T00:43:53.954Z,53.66
2017-06-10T00:44:26.917Z,54.14
2017-06-10T00:44:59.176Z,53.66
2017-06-10T00:45:31.430Z,54.05
2017-06-10T00:46:03.676Z,53.96
2017-06-10T00:46:35.914Z,53.86
2017-06-10T00:47:08.975Z,54.24
2017-06-10T00:47:41.225Z,53.86
2017-06-10T00:48:13.484Z,54.05
2017-06-10T00:48:45.774Z,54.14
2017-06-10T00:49:18.020Z,53.86
2017-06-10T00:49:50.270Z,53.96
2017-06-10T00:50:22.561Z,54.14
2017-06-10T00:50:54.830Z,53.86
2017-06-10T00:51:27.074Z,54.14
2017-06-10T00:51:59.439Z,53.96
2017-06-10T00:52:31.673Z,54.05
2017-06-10T00:53:03.920Z,54.14
2017-06-10T00:53:36.911Z,54.14
2017-06-10T00:54:09.171Z,54.14
2017-06-10T00:54:41.416Z,54.24
2017-06-10T00:55:14.366Z,54.05
2017-06-10T00:55:46.627Z,54.24
2017-06-10T00:56:19.811Z,54.14
2017-06-10T00:56:52.083Z,54.14
2017-06-10T00:57:24.352Z,54.14
2017-06-10T00:57:56.602Z,53.57
2017-06-10T00:58:28.842Z,54.05
2017-06-10T00:59:01.207Z,54.14
2017-06-10T00:59:33.479Z,53.96
2017-06-10T01:00:05.744Z,53.96
2017-06-10T01:00:38.000Z,54.05
2017-06-10T01:01:10.243Z,54.14
2017-06-10T01:01:42.516Z,54.14
2017-06-10T01:02:15.337Z,54.34
2017-06-10T01:02:47.599Z,54.14
2017-06-10T01:03:19.848Z,54.24
2017-06-10T01:03:52.082Z,54.05
2017-06-10T01:04:24.323Z,54.43
2017-06-10T01:04:56.572Z,54.24
2017-06-10T01:05:28.945Z,53.86
2017-06-10T01:06:01.193Z,54.34
2017-06-10T01:06:33.497Z,54.24
2017-06-10T01:07:05.761Z,54.22
2017-06-10T01:07:38.006Z,53.45
2017-06-10T01:08:10.266Z,53.92
2017-06-10T01:08:42.520Z,54.14
2017-06-10T01:09:14.809Z,54.31
2017-06-10T01:09:47.060Z,53.76
2017-06-10T01:10:19.319Z,54.14
2017-06-10T01:10:51.636Z,54.43
2017-06-10T01:11:23.883Z,53.64
2017-06-10T01:11:56.130Z,54.31
2017-06-10T01:12:28.370Z,53.57
2017-06-10T01:13:00.630Z,54.05
2017-06-10T01:13:32.908Z,54.31
2017-06-10T01:14:05.191Z,53.54
2017-06-10T01:14:37.465Z,54.22
2017-06-10T01:15:09.745Z,54.22
2017-06-10T01:15:42.022Z,54.02
2017-06-10T01:16:14.349Z,53.92
2017-06-10T01:16:46.621Z,54.41
2017-06-10T01:17:18.905Z,53.54
2017-06-10T01:17:51.178Z,54.12
2017-06-10T01:18:23.468Z,54.22
2017-06-10T01:18:55.746Z,54.02
2017-06-10T01:19:28.047Z,54.05
2017-06-10T01:20:00.341Z,54.24
2017-06-10T01:20:32.626Z,54.22
2017-06-10T01:21:04.914Z,53.74
2017-06-10T01:21:37.224Z,54.22
2017-06-10T01:22:09.515Z,54.02
2017-06-10T01:22:41.823Z,54.31
2017-06-10T01:23:14.070Z,54.12
2017-06-10T01:23:46.306Z,54.02
2017-06-10T01:24:18.574Z,54.12
2017-06-10T01:24:50.806Z,54.22
2017-06-10T01:25:23.843Z,54.12
2017-06-10T01:25:56.107Z,53.76
2017-06-10T01:26:28.372Z,53.74
2017-06-10T01:27:00.617Z,53.83
2017-06-10T01:27:32.865Z,53.83
2017-06-10T01:28:05.105Z,53.74
2017-06-10T01:28:37.391Z,53.83
2017-06-10T01:29:09.660Z,53.92
2017-06-10T01:29:41.916Z,53.92
2017-06-10T01:30:14.159Z,54.22
2017-06-10T01:30:46.410Z,54.02
2017-06-10T01:31:18.668Z,53.83
2017-06-10T01:31:50.924Z,54.22
2017-06-10T01:32:23.169Z,54.02
2017-06-10T01:32:55.421Z,54.22
2017-06-10T01:33:27.672Z,53.83
2017-06-10T01:33:59.935Z,54.41
2017-06-10T01:34:32.884Z,54.22
2017-06-10T01:35:05.127Z,53.92
2017-06-10T01:35:37.397Z,53.92
2017-06-10T01:36:09.692Z,53.92
2017-06-10T01:36:42.890Z,53.92
2017-06-10T01:37:15.136Z,53.92
2017-06-10T01:37:47.385Z,53.92
2017-06-10T01:38:19.640Z,53.92
2017-06-10T01:38:51.938Z,53.92
2017-06-10T01:39:24.182Z,54.41
2017-06-10T01:39:56.423Z,54.41
2017-06-10T01:40:28.754Z,53.92
2017-06-10T01:41:00.984Z,53.92
2017-06-10T01:41:33.256Z,53.92
2017-06-10T01:42:05.529Z,54.41
2017-06-10T01:42:37.812Z,54.41
2017-06-10T01:43:10.111Z,53.92
2017-06-10T01:43:42.422Z,53.83
2017-06-10T01:44:14.712Z,53.92
2017-06-10T01:44:46.998Z,54.02
2017-06-10T01:45:19.289Z,53.92
2017-06-10T01:45:51.588Z,53.92
2017-06-10T01:46:23.866Z,53.83
2017-06-10T01:46:56.146Z,54.41
2017-06-10T01:47:28.429Z,54.41
2017-06-10T01:48:00.720Z,54.5
2017-06-10T01:48:33.009Z,54.31
2017-06-10T01:49:05.285Z,54.02
2017-06-10T01:49:37.579Z,54.41
2017-06-10T01:50:09.865Z,53.92
2017-06-10T01:50:42.140Z,53.92
2017-06-10T01:51:14.415Z,53.92
2017-06-10T01:51:46.742Z,53.92
2017-06-10T01:52:19.029Z,54.41
2017-06-10T01:52:51.316Z,54.41
2017-06-10T01:53:23.590Z,53.92
2017-06-10T01:53:55.837Z,54.02
2017-06-10T01:54:28.083Z,54.5
2017-06-10T01:55:00.348Z,54.5
2017-06-10T01:55:32.617Z,54.41
2017-06-10T01:56:04.870Z,54.41
2017-06-10T01:56:37.122Z,54.41
2017-06-10T01:57:09.368Z,53.92
2017-06-10T01:57:41.600Z,53.92
2017-06-10T01:58:13.853Z,54.02
2017-06-10T01:58:46.097Z,54.5
2017-06-10T01:59:18.936Z,54.41
2017-06-10T01:59:51.202Z,53.83
2017-06-10T02:00:23.456Z,53.83
2017-06-10T02:00:55.708Z,53.92
2017-06-10T02:01:27.950Z,54.02
2017-06-10T02:02:00.182Z,54.5
2017-06-10T02:02:32.456Z,54.31
2017-06-10T02:03:04.722Z,53.92
2017-06-10T02:03:36.999Z,54.12
2017-06-10T02:04:09.278Z,53.92
2017-06-10T02:04:41.559Z,54.6
2017-06-10T02:05:13.848Z,54.5
2017-06-10T02:05:46.128Z,54.5
2017-06-10T02:06:18.412Z,54.12
2017-06-10T02:06:50.697Z,54.02
2017-06-10T02:07:22.975Z,54.41
2017-06-10T02:07:55.256Z,54.5
2017-06-10T02:08:27.544Z,54.41
2017-06-10T02:08:59.812Z,54.31
2017-06-10T02:09:32.104Z,54.12
2017-06-10T02:10:04.394Z,54.69
2017-06-10T02:10:36.669Z,54.69
2017-06-10T02:11:08.953Z,54.31
2017-06-10T02:11:41.229Z,54.12
2017-06-10T02:12:13.539Z,54.02
2017-06-10T02:12:45.833Z,53.92
2017-06-10T02:13:18.178Z,54.69
2017-06-10T02:13:50.424Z,54.69
2017-06-10T02:14:23.397Z,54.69
2017-06-10T02:14:55.657Z,54.12
2017-06-10T02:15:27.902Z,54.69
2017-06-10T02:16:00.146Z,54.6
2017-06-10T02:16:32.381Z,54.6
2017-06-10T02:17:04.627Z,54.6
2017-06-10T02:17:36.867Z,54.69
2017-06-10T02:18:09.105Z,54.6
2017-06-10T02:18:41.358Z,54.69
2017-06-10T02:19:13.733Z,54.22
2017-06-10T02:19:46.000Z,54.6
2017-06-10T02:20:18.268Z,54.6
2017-06-10T02:20:50.511Z,54.5
2017-06-10T02:21:22.767Z,54.12
2017-06-10T02:21:55.014Z,54.6
2017-06-10T02:22:27.266Z,54.22
2017-06-10T02:22:59.644Z,54.22
2017-06-10T02:23:31.898Z,54.22
2017-06-10T02:24:04.165Z,54.6
2017-06-10T02:24:36.418Z,54.12
2017-06-10T02:25:08.683Z,54.22
2017-06-10T02:25:40.925Z,54.22
2017-06-10T02:26:13.174Z,54.12
2017-06-10T02:26:45.435Z,54.6
2017-06-10T02:27:18.280Z,54.02
2017-06-10T02:27:50.549Z,54.22
2017-06-10T02:28:22.812Z,54.28
2017-06-10T02:28:55.069Z,54.5
2017-06-10T02:29:27.316Z,54.31
2017-06-10T02:29:59.554Z,54.31
2017-06-10T02:30:31.803Z,54.69
2017-06-10T02:31:04.060Z,54.57
2017-06-10T02:31:36.946Z,54.6
2017-06-10T02:32:09.182Z,54.41
2017-06-10T02:32:42.369Z,54.31
2017-06-10T02:33:14.621Z,54.57
2017-06-10T02:33:46.868Z,54.31
2017-06-10T02:34:19.125Z,54.6
2017-06-10T02:34:51.366Z,54.31
2017-06-10T02:35:23.610Z,54.31
2017-06-10T02:35:56.814Z,54.31
2017-06-10T02:36:29.118Z,54.41
2017-06-10T02:37:01.378Z,54.69
2017-06-10T02:37:33.639Z,54.6
2017-06-10T02:38:05.894Z,54.41
2017-06-10T02:38:38.134Z,54.69
2017-06-10T02:39:10.384Z,54.41
2017-06-10T02:39:43.365Z,54.19
2017-06-10T02:40:15.628Z,54.6
2017-06-10T02:40:47.881Z,54.19
2017-06-10T02:41:20.135Z,54.69
2017-06-10T02:41:52.398Z,54.6
2017-06-10T02:42:24.657Z,54.31
2017-06-10T02:42:56.913Z,54.69
2017-06-10T02:43:29.168Z,54.31
2017-06-10T02:44:01.436Z,54.67
2017-06-10T02:44:33.693Z,54.28
2017-06-10T02:45:05.954Z,54.22
2017-06-10T02:45:38.267Z,54.69
2017-06-10T02:46:10.531Z,54.6
2017-06-10T02:46:42.803Z,54.67
2017-06-10T02:47:15.052Z,54.57
2017-06-10T02:47:47.310Z,54.19
2017-06-10T02:48:19.563Z,54.5
2017-06-10T02:48:51.814Z,54.31
2017-06-10T02:49:24.072Z,54.5
2017-06-10T02:49:56.330Z,54.47
2017-06-10T02:50:28.598Z,54.47
2017-06-10T02:51:00.848Z,54.38
2017-06-10T02:51:33.104Z,54.47
2017-06-10T02:52:05.365Z,54.47
2017-06-10T02:52:37.625Z,54.96
2017-06-10T02:53:09.917Z,54.57
2017-06-10T02:53:42.215Z,54.28
2017-06-10T02:54:14.489Z,54.86
2017-06-10T02:54:46.781Z,54.09
2017-06-10T02:55:19.063Z,54.41
2017-06-10T02:55:51.351Z,54.38
2017-06-10T02:56:23.637Z,54.31
2017-06-10T02:56:55.923Z,54.89
2017-06-10T02:57:28.203Z,54.28
2017-06-10T02:58:00.483Z,54.67
2017-06-10T02:58:32.769Z,54.19
2017-06-10T02:59:05.055Z,54.67
2017-06-10T02:59:37.347Z,54.12
2017-06-10T03:00:09.631Z,54.12
2017-06-10T03:00:42.418Z,54.79
2017-06-10T03:01:14.735Z,54.12
2017-06-10T03:01:47.013Z,54.31
2017-06-10T03:02:19.301Z,54.31
2017-06-10T03:02:51.598Z,54.09
2017-06-10T03:03:23.843Z,54.19
2017-06-10T03:03:56.079Z,54.09
2017-06-10T03:04:28.342Z,54.86
2017-06-10T03:05:00.601Z,54.89
2017-06-10T03:05:32.881Z,54.22
2017-06-10T03:06:05.127Z,54.86
2017-06-10T03:06:37.372Z,54.09
2017-06-10T03:07:09.645Z,54.09
2017-06-10T03:07:41.904Z,54.31
2017-06-10T03:08:14.160Z,54.79
2017-06-10T03:08:46.427Z,54.77
2017-06-10T03:09:18.703Z,54.28
2017-06-10T03:09:50.991Z,54.86
2017-06-10T03:10:23.240Z,54.77
2017-06-10T03:10:55.494Z,54.77
2017-06-10T03:11:27.806Z,54.86
2017-06-10T03:12:01.044Z,54.79
2017-06-10T03:12:33.356Z,54.19
2017-06-10T03:13:05.617Z,54.77
2017-06-10T03:13:37.897Z,54.89
2017-06-10T03:14:10.190Z,54.38
2017-06-10T03:14:42.463Z,54.28
2017-06-10T03:15:14.749Z,54.96
2017-06-10T03:15:47.040Z,54.47
2017-06-10T03:16:19.312Z,54.86
2017-06-10T03:16:51.591Z,54.96
2017-06-10T03:17:23.879Z,54.57
2017-06-10T03:17:56.166Z,54.28
2017-06-10T03:18:28.447Z,54.77
2017-06-10T03:19:00.730Z,54.47
2017-06-10T03:19:33.020Z,54.57
2017-06-10T03:20:05.314Z,54.57
2017-06-10T03:20:37.589Z,54.57
2017-06-10T03:21:09.877Z,54.86
2017-06-10T03:21:42.167Z,54.57
2017-06-10T03:22:14.464Z,54.96
2017-06-10T03:22:46.737Z,54.86
2017-06-10T03:23:18.990Z,54.96
2017-06-10T03:23:51.248Z,54.96
2017-06-10T03:24:23.502Z,54.57
2017-06-10T03:24:55.764Z,54.96
2017-06-10T03:25:28.000Z,54.89
2017-06-10T03:26:00.246Z,54.77
2017-06-10T03:26:32.493Z,54.57
2017-06-10T03:27:04.725Z,54.57
2017-06-10T03:27:36.977Z,54.47
2017-06-10T03:28:09.244Z,54.57
2017-06-10T03:28:41.497Z,54.86
2017-06-10T03:29:13.757Z,54.57
2017-06-10T03:29:46.977Z,54.57
2017-06-10T03:30:19.255Z,54.77
2017-06-10T03:30:51.512Z,54.47
2017-06-10T03:31:23.759Z,54.57
2017-06-10T03:31:56.003Z,54.47
2017-06-10T03:32:28.240Z,54.86
2017-06-10T03:33:00.503Z,54.57
2017-06-10T03:33:32.785Z,54.96
2017-06-10T03:34:05.070Z,54.96
2017-06-10T03:34:37.356Z,54.67
2017-06-10T03:35:09.634Z,54.57
2017-06-10T03:35:41.921Z,54.86
2017-06-10T03:36:14.204Z,54.86
2017-06-10T03:36:46.478Z,54.67
2017-06-10T03:37:18.759Z,54.57
2017-06-10T03:37:51.050Z,54.57
2017-06-10T03:38:23.327Z,54.57
2017-06-10T03:38:55.618Z,54.57
2017-06-10T03:39:27.910Z,54.86
2017-06-10T03:40:00.194Z,54.57
2017-06-10T03:40:32.480Z,54.57
2017-06-10T03:41:04.756Z,54.38
2017-06-10T03:41:37.048Z,54.67
2017-06-10T03:42:09.330Z,54.57
2017-06-10T03:42:41.614Z,54.96
2017-06-10T03:43:13.896Z,54.57
2017-06-10T03:43:46.171Z,54.96
2017-06-10T03:44:18.455Z,54.57
2017-06-10T03:44:50.771Z,54.86
2017-06-10T03:45:23.064Z,54.67
2017-06-10T03:45:55.347Z,54.57
2017-06-10T03:46:27.639Z,54.96
2017-06-10T03:46:59.906Z,54.57
2017-06-10T03:47:32.215Z,54.86
2017-06-10T03:48:04.517Z,54.47
2017-06-10T03:48:36.807Z,54.96
2017-06-10T03:49:09.090Z,54.57
2017-06-10T03:49:41.361Z,55.05
2017-06-10T03:50:13.655Z,54.96
2017-06-10T03:50:45.946Z,54.96
2017-06-10T03:51:18.242Z,54.96
2017-06-10T03:51:50.528Z,54.47
2017-06-10T03:52:22.816Z,54.86
2017-06-10T03:52:55.098Z,54.96
2017-06-10T03:53:27.350Z,54.96
2017-06-10T03:53:59.593Z,54.47
2017-06-10T03:54:32.512Z,54.38
2017-06-10T03:55:04.787Z,54.96
2017-06-10T03:55:37.022Z,54.57
2017-06-10T03:56:09.273Z,54.96
2017-06-10T03:56:41.516Z,55.05
2017-06-10T03:57:14.512Z,54.57
2017-06-10T03:57:46.771Z,54.47
2017-06-10T03:58:19.017Z,54.96
2017-06-10T03:58:51.301Z,54.96
2017-06-10T03:59:23.548Z,54.86
2017-06-10T03:59:55.799Z,54.86
2017-06-10T04:00:28.989Z,54.86
2017-06-10T04:01:01.233Z,54.86
2017-06-10T04:01:33.484Z,54.57
2017-06-10T04:02:06.488Z,54.47
2017-06-10T04:02:38.738Z,54.96
2017-06-10T04:03:10.976Z,54.86
2017-06-10T04:03:43.245Z,54.47
2017-06-10T04:04:15.494Z,54.86
2017-06-10T04:04:47.736Z,54.57
2017-06-10T04:05:20.000Z,54.57
2017-06-10T04:05:53.020Z,54.47
2017-06-10T04:06:25.262Z,54.96
2017-06-10T04:06:58.328Z,54.57
2017-06-10T04:07:30.598Z,54.57
2017-06-10T04:08:03.328Z,54.47
2017-06-10T04:08:35.567Z,54.38
2017-06-10T04:09:07.802Z,54.96
2017-06-10T04:09:40.047Z,54.57
2017-06-10T04:10:12.316Z,54.47
2017-06-10T04:10:44.569Z,54.86
2017-06-10T04:11:16.818Z,54.57
2017-06-10T04:11:49.057Z,54.57
2017-06-10T04:12:21.365Z,54.86
2017-06-10T04:12:54.464Z,54.57
2017-06-10T04:13:26.715Z,54.89
2017-06-10T04:13:58.983Z,54.47
2017-06-10T04:14:31.223Z,54.99
2017-06-10T04:15:03.459Z,54.57
2017-06-10T04:15:35.702Z,54.96
2017-06-10T04:16:07.945Z,54.6
2017-06-10T04:16:40.211Z,54.57
2017-06-10T04:17:12.451Z,54.96
2017-06-10T04:17:44.806Z,54.79
2017-06-10T04:18:17.057Z,54.57
2017-06-10T04:18:49.294Z,54.57
2017-06-10T04:19:21.618Z,54.6
2017-06-10T04:19:54.562Z,54.6
2017-06-10T04:20:26.825Z,54.86
2017-06-10T04:20:59.088Z,54.99
2017-06-10T04:21:31.345Z,54.57
2017-06-10T04:22:03.596Z,54.79
2017-06-10T04:22:35.846Z,54.86
2017-06-10T04:23:08.129Z,54.86
2017-06-10T04:23:40.399Z,54.47
2017-06-10T04:24:12.692Z,54.5
2017-06-10T04:24:44.977Z,54.99
2017-06-10T04:25:17.257Z,54.5
2017-06-10T04:25:49.543Z,54.6
2017-06-10T04:26:21.831Z,54.5
2017-06-10T04:26:54.130Z,54.57
2017-06-10T04:27:26.401Z,54.38
2017-06-10T04:27:58.686Z,54.5
2017-06-10T04:28:30.982Z,54.5
2017-06-10T04:29:03.273Z,54.5
2017-06-10T04:29:35.595Z,54.77
2017-06-10T04:30:07.886Z,54.79
2017-06-10T04:30:40.181Z,54.19
2017-06-10T04:31:12.477Z,54.31
2017-06-10T04:31:44.778Z,54.89
2017-06-10T04:32:17.069Z,54.41
2017-06-10T04:32:49.353Z,54.19
2017-06-10T04:33:21.637Z,54.77
2017-06-10T04:33:53.923Z,54.86
2017-06-10T04:34:26.214Z,54.22
2017-06-10T04:34:58.499Z,54.28
2017-06-10T04:35:30.779Z,54.79
2017-06-10T04:36:03.064Z,54.09
2017-06-10T04:36:35.373Z,54.12
2017-06-10T04:37:07.659Z,54.89
2017-06-10T04:37:39.971Z,54.99
2017-06-10T04:38:12.258Z,54.31
2017-06-10T04:38:44.534Z,54.22
2017-06-10T04:39:16.822Z,54.69
2017-06-10T04:39:49.125Z,54.31
2017-06-10T04:40:21.408Z,54.41
2017-06-10T04:40:53.703Z,54.31
2017-06-10T04:41:25.981Z,54.31
2017-06-10T04:41:58.271Z,54.41
2017-06-10T04:42:30.571Z,54.6
2017-06-10T04:43:02.869Z,54.69
2017-06-10T04:43:35.181Z,54.6
2017-06-10T04:44:07.466Z,54.31
2017-06-10T04:44:39.763Z,54.69
2017-06-10T04:45:12.065Z,54.31
2017-06-10T04:45:44.353Z,54.6
2017-06-10T04:46:16.626Z,54.69
2017-06-10T04:46:48.922Z,54.22
2017-06-10T04:47:21.204Z,54.22
2017-06-10T04:47:53.477Z,54.31
2017-06-10T04:48:25.767Z,54.69
2017-06-10T04:48:58.063Z,54.69
2017-06-10T04:49:30.362Z,54.31
2017-06-10T04:50:02.667Z,54.31
2017-06-10T04:50:34.965Z,54.69
2017-06-10T04:51:07.262Z,54.31
2017-06-10T04:51:39.550Z,54.12
2017-06-10T04:52:11.850Z,54.6
2017-06-10T04:52:44.126Z,54.12
2017-06-10T04:53:16.412Z,54.6
2017-06-10T04:53:48.672Z,54.22
2017-06-10T04:54:20.932Z,54.6
2017-06-10T04:54:53.180Z,54.12
2017-06-10T04:55:25.422Z,54.5
2017-06-10T04:55:57.683Z,54.69
2017-06-10T04:56:29.919Z,54.6
2017-06-10T04:57:02.164Z,54.69
2017-06-10T04:57:34.411Z,54.69
2017-06-10T04:58:06.660Z,53.92
2017-06-10T04:58:38.912Z,54.69
2017-06-10T04:59:11.154Z,54.69
2017-06-10T04:59:43.404Z,54.5
2017-06-10T05:00:15.668Z,53.92
2017-06-10T05:00:47.908Z,54.41
2017-06-10T05:01:20.171Z,53.92
2017-06-10T05:01:52.432Z,54.02
2017-06-10T05:02:25.439Z,54.5
2017-06-10T05:02:57.699Z,54.41
2017-06-10T05:03:29.984Z,53.92
2017-06-10T05:04:02.269Z,54.12
2017-06-10T05:04:34.543Z,54.6
2017-06-10T05:05:06.815Z,54.02
2017-06-10T05:05:39.121Z,54.31
2017-06-10T05:06:11.424Z,54.12
2017-06-10T05:06:43.720Z,54.43
2017-06-10T05:07:16.012Z,54.43
2017-06-10T05:07:48.295Z,54.41
2017-06-10T05:08:20.583Z,54.41
2017-06-10T05:08:52.870Z,53.86
2017-06-10T05:09:25.148Z,53.86
2017-06-10T05:09:57.435Z,54.24
2017-06-10T05:10:29.774Z,53.86
2017-06-10T05:11:02.070Z,54.53
2017-06-10T05:11:34.369Z,54.05
2017-06-10T05:12:06.688Z,54.24
2017-06-10T05:12:38.975Z,54.05
2017-06-10T05:13:11.286Z,53.76
2017-06-10T05:13:43.576Z,53.76
2017-06-10T05:14:15.856Z,53.76
2017-06-10T05:14:48.143Z,53.57
2017-06-10T05:15:20.418Z,53.96
2017-06-10T05:15:52.697Z,53.57
2017-06-10T05:16:24.982Z,54.34
2017-06-10T05:16:57.272Z,54.34
2017-06-10T05:17:29.554Z,53.86
2017-06-10T05:18:01.844Z,54.34
2017-06-10T05:18:34.145Z,54.43
2017-06-10T05:19:06.431Z,54.34
2017-06-10T05:19:38.713Z,54.14
2017-06-10T05:20:10.998Z,54.14
2017-06-10T05:20:43.286Z,54.05
2017-06-10T05:21:15.575Z,53.96
2017-06-10T05:21:47.868Z,53.86
2017-06-10T05:22:20.151Z,54.14
2017-06-10T05:22:52.449Z,53.86
2017-06-10T05:23:24.746Z,54.24
2017-06-10T05:23:57.061Z,53.96
2017-06-10T05:24:29.353Z,53.88
2017-06-10T05:25:01.645Z,53.88
2017-06-10T05:25:33.940Z,53.78
2017-06-10T05:26:06.226Z,53.78
2017-06-10T05:26:38.521Z,54.17
2017-06-10T05:27:10.814Z,54.17
2017-06-10T05:27:43.105Z,54.17
2017-06-10T05:28:15.391Z,53.69
2017-06-10T05:28:47.665Z,53.88
2017-06-10T05:29:19.957Z,54.08
2017-06-10T05:29:52.233Z,53.78
2017-06-10T05:30:24.548Z,54.08
2017-06-10T05:30:56.832Z,53.69
2017-06-10T05:31:29.123Z,53.78
2017-06-10T05:32:01.420Z,53.78
2017-06-10T05:32:33.703Z,53.78
2017-06-10T05:33:05.961Z,53.78
2017-06-10T05:33:38.245Z,53.59
2017-06-10T05:34:10.514Z,53.59
2017-06-10T05:34:42.781Z,53.78
2017-06-10T05:35:15.048Z,53.59
2017-06-10T05:35:47.314Z,53.91
2017-06-10T05:36:19.554Z,53.88
2017-06-10T05:36:52.601Z,53.78
2017-06-10T05:37:24.865Z,53.72
2017-06-10T05:37:57.109Z,53.23
2017-06-10T05:38:29.378Z,53.53
2017-06-10T05:39:01.627Z,53.62
2017-06-10T05:39:33.908Z,53.23
2017-06-10T05:40:06.179Z,54.1
2017-06-10T05:40:38.439Z,53.62
2017-06-10T05:41:10.705Z,54.1
2017-06-10T05:41:42.963Z,54.1
2017-06-10T05:42:15.223Z,53.91
2017-06-10T05:42:47.474Z,53.43
2017-06-10T05:43:19.745Z,53.43
2017-06-10T05:43:52.042Z,53.33
2017-06-10T05:44:24.336Z,53.53
2017-06-10T05:44:56.630Z,53.72
2017-06-10T05:45:28.935Z,53.23
2017-06-10T05:46:01.223Z,53.33
2017-06-10T05:46:33.528Z,53.43
2017-06-10T05:47:05.824Z,53.62
2017-06-10T05:47:38.105Z,53.33
2017-06-10T05:48:10.409Z,53.43
2017-06-10T05:48:42.702Z,53.72
2017-06-10T05:49:15.000Z,53.81
2017-06-10T05:49:47.292Z,53.72
2017-06-10T05:50:19.602Z,53.23
2017-06-10T05:50:51.881Z,53.72
2017-06-10T05:51:24.185Z,53.27
2017-06-10T05:51:56.476Z,53.17
2017-06-10T05:52:28.783Z,53.55
2017-06-10T05:53:01.065Z,53.07
2017-06-10T05:53:33.308Z,53.17
2017-06-10T05:54:05.560Z,53.27
2017-06-10T05:54:38.547Z,53.27
2017-06-10T05:55:10.818Z,52.97
2017-06-10T05:55:43.079Z,53.36
2017-06-10T05:56:15.326Z,53.07
2017-06-10T05:56:47.567Z,53.07
2017-06-10T05:57:19.811Z,52.78
2017-06-10T05:57:52.059Z,53.36
2017-06-10T05:58:24.312Z,53.27
2017-06-10T05:58:57.496Z,53.45
2017-06-10T05:59:29.747Z,52.97
2017-06-10T06:00:02.003Z,53.07
2017-06-10T06:00:34.258Z,52.78
2017-06-10T06:01:06.508Z,53.27
2017-06-10T06:01:38.761Z,53.27
2017-06-10T06:02:11.014Z,52.97
2017-06-10T06:02:43.251Z,53.27
2017-06-10T06:03:15.503Z,53.17
2017-06-10T06:03:47.742Z,53.17
2017-06-10T06:04:20.010Z,53.07
2017-06-10T06:04:52.340Z,52.91
2017-06-10T06:05:24.612Z,53.07
2017-06-10T06:05:57.500Z,53.17
2017-06-10T06:06:29.753Z,52.91
2017-06-10T06:07:02.018Z,52.81
2017-06-10T06:07:34.271Z,53.19
2017-06-10T06:08:07.489Z,52.91
2017-06-10T06:08:39.752Z,52.81
2017-06-10T06:09:11.999Z,53.39
2017-06-10T06:09:44.258Z,52.61
2017-06-10T06:10:16.501Z,53.09
2017-06-10T06:10:48.756Z,52.81
2017-06-10T06:11:21.141Z,53
2017-06-10T06:11:53.412Z,52.91
2017-06-10T06:12:25.673Z,52.71
2017-06-10T06:12:58.023Z,52.71
2017-06-10T06:13:30.263Z,52.91
2017-06-10T06:14:02.548Z,52.52
2017-06-10T06:14:34.805Z,52.91
2017-06-10T06:15:07.051Z,52.33
2017-06-10T06:15:39.290Z,52.61
2017-06-10T06:16:11.550Z,53
2017-06-10T06:16:43.813Z,52.91
2017-06-10T06:17:16.055Z,52.91
2017-06-10T06:17:48.289Z,52.73
2017-06-10T06:18:20.535Z,52.73
2017-06-10T06:18:52.780Z,52.52
2017-06-10T06:19:25.039Z,52.64
2017-06-10T06:19:57.290Z,52.64
2017-06-10T06:20:29.519Z,52.64
2017-06-10T06:21:02.623Z,52.45
2017-06-10T06:21:34.893Z,52.73
2017-06-10T06:22:07.130Z,52.93
2017-06-10T06:22:39.402Z,52.45
2017-06-10T06:23:11.657Z,52.45
2017-06-10T06:23:43.891Z,52.73
2017-06-10T06:24:16.138Z,52.64
2017-06-10T06:24:48.380Z,53.03
2017-06-10T06:25:20.637Z,52.35
2017-06-10T06:25:52.900Z,52.35
2017-06-10T06:26:25.159Z,52.55
2017-06-10T06:26:57.417Z,52.16
2017-06-10T06:27:29.664Z,52.35
2017-06-10T06:28:01.908Z,52.55
2017-06-10T06:28:34.976Z,52.25
2017-06-10T06:29:07.220Z,52.25
2017-06-10T06:29:39.468Z,52.55
2017-06-10T06:30:11.705Z,52.55
2017-06-10T06:30:43.966Z,52.64
2017-06-10T06:31:17.064Z,52.57
2017-06-10T06:31:49.308Z,52.19
2017-06-10T06:32:21.569Z,52.73
2017-06-10T06:32:53.837Z,52.35
2017-06-10T06:33:27.010Z,52.06
2017-06-10T06:33:59.257Z,52.47
2017-06-10T06:34:31.513Z,52.67
2017-06-10T06:35:03.771Z,52.57
2017-06-10T06:35:36.071Z,52.19
2017-06-10T06:36:08.319Z,52.67
2017-06-10T06:36:40.637Z,52.37
2017-06-10T06:37:12.907Z,52.19
2017-06-10T06:37:45.168Z,52.47
2017-06-10T06:38:17.412Z,52.09
2017-06-10T06:38:49.665Z,52.09
2017-06-10T06:39:21.923Z,52.19
2017-06-10T06:39:54.169Z,52.67
2017-06-10T06:40:26.433Z,52.47
2017-06-10T06:40:58.727Z,52.09
2017-06-10T06:41:30.980Z,52.57
2017-06-10T06:42:04.084Z,52.57
2017-06-10T06:42:36.356Z,52.57
2017-06-10T06:43:08.618Z,52.09
2017-06-10T06:43:41.476Z,52.19
2017-06-10T06:44:14.640Z,52.19
2017-06-10T06:44:46.886Z,52.21
2017-06-10T06:45:19.129Z,52.37
2017-06-10T06:45:51.374Z,52.09
2017-06-10T06:46:23.632Z,52.09
2017-06-10T06:46:56.456Z,52.11
2017-06-10T06:47:29.520Z,52.11
2017-06-10T06:48:01.798Z,52.21
2017-06-10T06:48:34.080Z,52.21
2017-06-10T06:49:07.030Z,52.01
2017-06-10T06:49:39.320Z,51.92
2017-06-10T06:50:11.592Z,52.31
2017-06-10T06:50:43.830Z,52.21
2017-06-10T06:51:16.082Z,52.4
2017-06-10T06:51:48.321Z,51.63
2017-06-10T06:52:20.573Z,52.01
2017-06-10T06:52:52.843Z,51.73
2017-06-10T06:53:25.067Z,51.73
2017-06-10T06:53:57.329Z,51.73
2017-06-10T06:54:29.575Z,51.44
2017-06-10T06:55:01.854Z,52.4
2017-06-10T06:55:34.109Z,52.4
2017-06-10T06:56:06.395Z,51.53
2017-06-10T06:56:38.646Z,51.63
2017-06-10T06:57:10.910Z,51.63